Latest Weather Observations for Roebourne Airport

IDW60801

Issued at 9:05 am WST Thursday 31 July 2014 (issued every 30 minutes, with the page automatically refreshed every 10 minutes)

About weather observations | Map of weather stations | Latest weather observations for WA | Other Formats
Station Details ID: 004090 Name: ROEBOURNE AERO Lat: -20.76 Lon: 117.16 Height: 10.7 m
Data from the previous 72 hours. | See also: Recent months at Roebourne Airport
Date/Time
WST
Temp
°C
App
Temp
°C
Dew
Point
Rel
Hum
%
Delta-T
°C
Wind Press
QNH
hPa
Press
MSL
hPa
Rain
since 9 am
mm
Dir
 
Spd
km/h
Gust
km/h
Spd
kts
Gust
kts
31/09:00am 25.5 23.8 8.5 34 9.1 S 7 11 4 6 1018.5 1018.4 0.0
31/08:30am 21.7 21.6 9.3 45 6.6 WSW 0 0 0 0 1018.5 - 0.0
31/08:00am 19.1 19.0 9.6 54 5.0 CALM 0 0 0 0 1018.4 1018.3 0.0
31/07:30am 15.6 14.7 9.1 65 3.3 E 4 6 2 3 1018.3 - 0.0
31/07:00am 14.3 12.6 7.6 64 3.3 NNW 6 6 3 3 1018.1 1018.0 0.0
31/06:30am 14.4 12.8 7.9 65 3.2 NNE 6 7 3 4 1017.9 - 0.0
31/06:00am 14.7 13.1 8.0 64 3.3 E 6 13 3 7 1017.5 1017.4 0.0
31/05:30am 15.6 14.5 8.4 62 3.6 SSE 4 7 2 4 1017.4 - 0.0
31/05:00am 14.0 11.5 8.4 69 2.8 SSW 11 15 6 8 1017.1 1017.0 0.0
31/04:30am 13.4 12.5 7.6 68 2.8 W 2 9 1 5 1016.9 - 0.0
31/04:00am 14.5 12.9 8.9 69 2.8 N 7 13 4 7 1016.9 1016.8 0.0
31/03:30am 15.4 14.1 9.1 66 3.2 WSW 6 7 3 4 1016.9 - 0.0
31/03:00am 14.3 11.8 8.0 66 3.1 S 11 13 6 7 1017.2 1017.1 0.0
31/02:30am 14.9 12.2 8.8 67 3.1 SSW 13 15 7 8 1017.3 - 0.0
31/02:00am 15.1 12.0 8.8 66 3.2 SSW 15 19 8 10 1017.2 1017.1 0.0
31/01:30am 16.3 15.0 9.9 66 3.4 W 7 11 4 6 1017.2 - 0.0
31/01:00am 16.0 14.7 9.2 64 3.5 WSW 6 9 3 5 1017.4 1017.3 0.0
31/12:30am 16.6 14.8 9.5 63 3.7 SSW 9 11 5 6 1017.7 - 0.0
31/12:00am 17.9 17.1 9.8 59 4.3 W 4 7 2 4 1017.7 1017.6 0.0
 
Date/Time
WST
Temp
°C
App
Temp
°C
Dew
Point
Rel
Hum
%
Delta-T
°C
Wind Press
QNH
hPa
Press
MSL
hPa
Rain
since 9 am
mm
Dir
 
Spd
km/h
Gust
km/h
Spd
kts
Gust
kts
30/11:30pm 18.2 16.1 9.8 58 4.4 SSW 11 13 6 7 1017.8 - 0.0
30/11:00pm 18.5 16.4 9.8 57 4.6 S 11 15 6 8 1017.9 1017.8 0.0
30/10:30pm 19.8 16.8 10.8 56 4.9 SSW 17 17 9 9 1018.0 - 0.0
30/10:00pm 19.2 17.1 11.0 59 4.5 SW 13 15 7 8 1018.0 1017.9 0.0
30/09:30pm 19.7 17.6 11.2 58 4.7 SSW 13 19 7 10 1017.8 - 0.0
30/09:00pm 19.7 18.5 11.5 59 4.5 S 9 15 5 8 1017.9 1017.8 0.0
30/08:30pm 19.4 19.2 11.7 61 4.2 SW 4 7 2 4 1017.8 - 0.0
30/08:00pm 21.0 20.8 13.7 63 4.2 NW 7 11 4 6 1017.4 1017.3 0.0
30/07:30pm 20.7 20.3 12.9 61 4.4 N 7 9 4 5 1017.1 - 0.0
30/07:00pm 21.4 21.0 12.3 56 5.1 NNW 6 7 3 4 1017.0 1016.9 0.0
30/06:30pm 21.9 20.6 11.3 51 5.9 NNW 9 11 5 6 1016.8 - 0.0
30/06:00pm 24.2 21.9 10.5 42 7.6 N 13 17 7 9 1016.6 1016.5 0.0
30/05:30pm 26.3 22.3 9.2 34 9.4 N 20 26 11 14 1016.7 - 0.0
30/05:00pm 27.1 22.8 8.0 30 10.3 N 20 26 11 14 1016.7 1016.6 0.0
30/04:30pm 28.3 23.4 7.0 26 11.4 N 22 30 12 16 1016.5 - 0.0
30/04:00pm 28.7 23.5 7.3 26 11.5 N 24 30 13 16 1016.4 1016.3 0.0
30/03:30pm 29.5 24.2 6.8 24 12.1 NNE 24 30 13 16 1016.4 - 0.0
30/03:00pm 29.4 24.1 6.7 24 12.1 NNE 24 30 13 16 1016.6 1016.5 0.0
30/02:30pm 29.4 24.2 7.3 25 11.9 N 24 30 13 16 1016.8 - 0.0
30/02:00pm 29.8 24.6 7.1 24 12.2 N 24 30 13 16 1017.0 1016.9 0.0
30/01:30pm 29.6 23.9 6.9 24 12.2 N 26 32 14 17 1017.3 - 0.0
30/01:00pm 30.9 25.6 6.7 22 13.0 NNE 24 32 13 17 1017.7 1017.6 0.0
30/12:30pm 30.2 24.5 6.8 23 12.6 NNE 26 33 14 18 1018.2 - 0.0
30/12:00pm 29.6 23.8 6.3 23 12.3 NNE 26 33 14 18 1018.6 1018.5 0.0
30/11:30am 31.1 26.0 7.5 23 12.9 NE 24 30 13 16 1018.7 - 0.0
30/11:00am 30.9 25.9 4.6 19 13.6 ESE 20 30 11 16 1019.0 1018.9 0.0
30/10:30am 29.9 24.3 5.2 21 12.9 ESE 24 32 13 17 1019.2 - 0.0
30/10:00am 28.6 22.5 4.8 22 12.2 E 26 32 14 17 1019.5 1019.4 0.0
30/09:30am 27.8 22.8 4.8 23 11.8 E 20 28 11 15 1019.7 - 0.0
30/09:00am 26.1 21.8 5.1 26 10.7 E 17 20 9 11 1019.6 1019.5 0.0
30/08:30am 22.9 21.0 6.6 35 8.4 SE 6 13 3 7 1019.4 - 0.0
30/08:00am 19.4 17.8 8.1 48 5.8 S 6 7 3 4 1019.4 1019.3 0.0
30/07:30am 16.2 14.5 7.4 56 4.4 SSW 6 9 3 5 1019.3 - 0.0
30/07:00am 12.8 10.6 6.4 65 3.0 S 7 9 4 5 1018.9 1018.8 0.0
30/06:30am 13.2 11.3 6.8 65 3.1 WNW 6 9 3 5 1018.7 - 0.0
30/06:00am 13.4 11.4 6.3 62 3.4 SSW 6 9 3 5 1018.5 1018.4 0.0
30/05:30am 12.8 11.5 5.9 63 3.2 W 2 9 1 5 1018.1 - 0.0
30/05:00am 14.6 11.9 5.7 55 4.2 SW 9 13 5 7 1017.8 1017.7 0.0
30/04:30am 14.4 12.7 5.7 56 4.1 SW 4 9 2 5 1017.6 - 0.0
30/04:00am 16.9 13.3 6.7 51 5.0 SSW 15 17 8 9 1017.5 1017.4 0.0
30/03:30am 16.6 14.3 7.3 54 4.6 W 9 15 5 8 1017.5 - 0.0
30/03:00am 15.9 14.7 6.3 53 4.7 SW 2 9 1 5 1017.5 1017.4 0.0
30/02:30am 15.9 12.6 6.3 53 4.7 SW 13 15 7 8 1017.7 - 0.0
30/02:00am 16.3 14.1 6.2 51 4.9 WSW 7 7 4 4 1018.0 1017.9 0.0
30/01:30am 16.1 13.5 6.0 51 4.9 WSW 9 11 5 6 1018.3 - 0.0
30/01:00am 16.8 14.2 6.3 50 5.1 SW 9 13 5 7 1018.4 1018.3 0.0
30/12:30am 18.1 15.5 6.0 45 5.9 W 9 11 5 6 1018.4 - 0.0
30/12:00am 17.3 14.0 6.5 49 5.3 WNW 13 15 7 8 1018.2 1018.1 0.0
 
Date/Time
WST
Temp
°C
App
Temp
°C
Dew
Point
Rel
Hum
%
Delta-T
°C
Wind Press
QNH
hPa
Press
MSL
hPa
Rain
since 9 am
mm
Dir
 
Spd
km/h
Gust
km/h
Spd
kts
Gust
kts
29/11:30pm 16.7 13.7 5.9 49 5.2 SSW 11 13 6 7 1018.1 - 0.0
29/11:00pm 16.2 12.8 5.8 50 5.0 S 13 13 7 7 1018.2 1018.1 0.0
29/10:30pm 17.7 16.3 7.2 50 5.3 S 4 7 2 4 1018.5 - 0.0
29/10:00pm 18.3 16.4 6.5 46 5.8 S 6 7 3 4 1018.6 1018.5 0.0
29/09:30pm 18.6 16.4 6.4 45 6.1 S 7 7 4 4 1018.7 - 0.0
29/09:00pm 18.8 18.0 6.3 44 6.2 CALM 0 0 0 0 1018.6 1018.5 0.0
29/08:30pm 19.5 17.0 6.6 43 6.5 SSW 9 13 5 7 1018.4 - 0.0
29/08:00pm 20.2 16.3 7.2 43 6.6 S 17 17 9 9 1018.1 1018.0 0.0
29/07:30pm 19.6 17.4 6.3 42 6.6 SSE 7 9 4 5 1018.2 - 0.0
29/07:00pm 22.6 22.0 7.2 37 8.0 CALM 0 0 0 0 1018.0 1017.9 0.0
29/06:30pm 22.9 21.9 7.4 37 8.1 NW 2 7 1 4 1017.8 - 0.0
29/06:00pm 24.3 21.5 7.0 33 9.0 NNE 11 13 6 7 1017.6 1017.5 0.0
29/05:30pm 26.5 23.3 7.0 29 10.3 NNE 13 17 7 9 1017.5 - 0.0
29/05:00pm 28.0 23.5 6.2 25 11.4 N 19 24 10 13 1017.3 1017.2 0.0
29/04:30pm 28.7 24.0 6.1 24 11.9 N 20 24 11 13 1017.2 - 0.0
29/04:00pm 29.5 24.6 6.8 24 12.1 NNE 22 28 12 15 1017.1 1017.0 0.0
29/03:30pm 30.2 25.5 6.1 22 12.8 NNE 20 28 11 15 1017.2 - 0.0
29/03:00pm 30.4 25.4 6.3 22 12.8 NNE 22 28 12 15 1017.2 1017.1 0.0
29/02:30pm 31.0 25.9 6.1 21 13.3 NE 22 30 12 16 1017.2 - 0.0
29/02:00pm 30.5 25.0 5.7 21 13.1 NE 24 30 13 16 1017.4 1017.3 0.0
29/01:30pm 30.9 25.4 6.0 21 13.2 NE 24 30 13 16 1017.8 - 0.0
29/01:00pm 30.7 25.6 5.9 21 13.1 NE 22 28 12 15 1018.0 1017.9 0.0
29/12:30pm 31.0 26.2 5.4 20 13.5 ENE 20 26 11 14 1018.4 - 0.0
29/12:00pm 31.2 26.3 4.9 19 13.7 ENE 20 30 11 16 1018.7 1018.6 0.0
29/11:30am 30.7 25.1 3.7 18 13.8 ENE 22 32 12 17 1019.0 - 0.0
29/11:00am 30.1 25.0 4.0 19 13.3 ESE 20 26 11 14 1019.2 1019.1 0.0
29/10:30am 29.3 23.7 3.3 19 13.1 ESE 22 30 12 16 1019.5 - 0.0
29/10:00am 29.0 23.1 3.8 20 12.7 ESE 24 30 13 16 1019.6 1019.5 0.0
29/09:30am 28.1 22.5 3.7 21 12.3 SE 22 28 12 15 1019.5 - 0.0
29/09:00am 26.4 22.3 4.2 24 11.1 S 15 20 8 11 1019.2 1019.1 0.0
29/08:30am 24.6 20.8 3.8 26 10.2 SE 13 17 7 9 1019.0 - 0.0
29/08:00am 20.1 17.5 4.2 35 7.6 S 7 9 4 5 1018.8 1018.7 0.0
29/07:30am 16.4 14.2 6.0 50 5.0 SSW 7 11 4 6 1018.4 - 0.0
29/07:00am 13.2 10.6 6.1 62 3.4 SSW 9 11 5 6 1018.2 1018.1 0.0
29/06:30am 12.8 11.6 4.5 57 3.8 CALM 0 0 0 0 1018.1 - 0.0
29/06:00am 13.8 11.8 6.2 60 3.6 NW 6 9 3 5 1017.9 1017.8 0.0
29/05:30am 13.8 12.3 4.9 55 4.1 N 2 11 1 6 1017.7 - 0.0
29/05:00am 14.2 13.1 5.0 54 4.3 CALM 0 0 0 0 1017.4 1017.3 0.0
29/04:30am 16.1 15.1 5.7 50 5.0 CALM 0 2 0 1 1017.4 - 0.0
29/04:00am 15.9 13.7 5.5 50 5.0 WNW 6 9 3 5 1017.2 1017.1 0.0
29/03:30am 18.4 15.7 3.8 38 6.9 SSE 7 11 4 6 1017.3 - 0.0
29/03:00am 18.0 15.7 4.6 41 6.4 ESE 6 9 3 5 1017.4 1017.3 0.0
29/02:30am 19.1 14.2 5.2 40 6.8 SSW 20 22 11 12 1017.5 - 0.0
29/02:00am 18.7 14.2 5.9 43 6.3 S 19 20 10 11 1017.8 1017.7 0.0
29/01:30am 18.0 14.0 6.5 47 5.7 SSW 17 17 9 9 1018.0 - 0.0
29/01:00am 17.6 13.6 6.8 49 5.4 SSW 17 19 9 10 1018.2 1018.1 0.0
29/12:30am 17.6 13.4 7.6 52 5.0 SW 19 20 10 11 1018.3 - 0.0
29/12:00am 15.6 12.8 8.6 63 3.5 SW 13 15 7 8 1018.4 1018.3 0.0
 
Date/Time
WST
Temp
°C
App
Temp
°C
Dew
Point
Rel
Hum
%
Delta-T
°C
Wind Press
QNH
hPa
Press
MSL
hPa
Rain
since 9 am
mm
Dir
 
Spd
km/h
Gust
km/h
Spd
kts
Gust
kts
28/11:30pm 16.2 13.6 9.2 63 3.6 SW 13 13 7 7 1018.6 - 0.0
28/11:00pm 17.8 15.4 10.2 61 4.0 SW 13 15 7 8 1018.7 1018.6 0.0
28/10:30pm 17.7 16.8 10.6 63 3.8 WSW 6 7 3 4 1018.8 - 0.0
28/10:00pm 17.4 15.6 9.6 60 4.1 SSW 9 13 5 7 1018.8 1018.7 0.0
28/09:30pm 18.0 15.8 9.4 57 4.5 SW 11 13 6 7 1018.6 - 0.0
28/09:00pm 21.2 19.4 11.0 52 5.6 SW 11 15 6 8 1018.5 1018.4 0.0
28/08:30pm 21.8 20.4 10.9 50 6.0 WSW 9 11 5 6 1018.5 - 0.0
28/08:00pm 21.8 19.7 11.2 51 5.9 WSW 13 17 7 9 1018.4 1018.3 0.0
28/07:30pm 22.1 20.5 11.5 51 5.9 WSW 11 15 6 8 1018.2 - 0.0
28/07:00pm 22.1 20.6 11.8 52 5.8 W 11 13 6 7 1017.9 1017.8 0.0
28/06:30pm 23.1 20.4 10.5 45 6.9 WNW 15 17 8 9 1017.6 - 0.0
28/06:00pm 24.8 21.9 8.3 35 8.8 WNW 13 15 7 8 1017.1 1017.0 0.0
28/05:30pm 27.2 24.9 7.6 29 10.5 NW 9 11 5 6 1016.7 - 0.0
28/05:00pm 28.5 25.2 8.2 28 11.0 N 15 19 8 10 1016.6 1016.5 0.0
28/04:30pm 29.3 25.7 6.7 24 12.1 N 15 19 8 10 1016.4 - 0.0
28/04:00pm 29.8 25.5 7.1 24 12.2 N 19 24 10 13 1016.2 1016.1 0.0
28/03:30pm 30.8 25.9 5.3 20 13.4 NNE 20 26 11 14 1016.2 - 0.0
28/03:00pm 31.3 26.5 5.7 20 13.6 NNE 20 26 11 14 1016.4 1016.3 0.0
28/02:30pm 31.0 26.2 4.7 19 13.7 NNE 19 28 10 15 1016.6 - 0.0
28/02:00pm 31.3 26.0 4.9 19 13.8 NE 22 30 12 16 1017.1 1017.0 0.0
28/01:30pm 31.4 28.8 3.4 17 14.3 NE 6 15 3 8 1017.6 - 0.0
28/01:00pm 31.6 28.7 4.4 18 14.1 E 9 20 5 11 1017.9 1017.8 0.0
28/12:30pm 31.1 27.7 4.0 18 14.0 E 11 17 6 9 1018.3 - 0.0
28/12:00pm 31.2 28.2 4.1 18 14.0 NNE 9 17 5 9 1018.9 1018.8 0.0
28/11:30am 30.1 27.3 3.2 18 13.6 SSW 7 11 4 6 1019.2 - 0.0
28/11:00am 29.5 26.2 2.7 18 13.3 ESE 9 13 5 7 1019.8 1019.7 0.0
28/10:30am 29.1 25.0 2.4 18 13.2 SSE 13 20 7 11 1020.0 - 0.0
28/10:00am 28.8 23.5 2.9 19 12.9 SSE 20 26 11 14 1020.2 1020.1 0.0
28/09:30am 27.7 22.8 2.0 19 12.5 SSE 17 22 9 12 1020.2 - 0.0

Other Formats:

Comma delimited format used in spreadsheet applications
http://www.bom.gov.au/fwo/IDW60801/IDW60801.94308.axf

JavaScript Object Notation format (JSON) in row-major order
http://www.bom.gov.au/fwo/IDW60801/IDW60801.94308.json